createdAt,value
2022-09-30T00:07:43.107Z,82.2
2022-09-30T00:22:53.372Z,82.2
2022-09-30T00:38:03.047Z,82.1
2022-09-30T00:53:12.567Z,82.4
2022-09-30T01:08:21.798Z,82.8
2022-09-30T01:23:31.154Z,82.3
2022-09-30T01:38:40.522Z,82.9
2022-09-30T01:53:49.551Z,83
2022-09-30T02:08:59.363Z,83.3
2022-09-30T02:24:08.721Z,83.4
2022-09-30T02:39:18.434Z,83.6
2022-09-30T02:54:27.888Z,83.7
2022-09-30T03:09:37.667Z,83.8
2022-09-30T03:24:46.843Z,83.8
2022-09-30T03:39:56.790Z,83.9
2022-09-30T03:55:06.551Z,84
2022-09-30T04:10:16.335Z,84
2022-09-30T04:25:25.979Z,84.1
2022-09-30T04:40:35.746Z,84.5
2022-09-30T04:55:45.122Z,84.1
2022-09-30T05:10:54.951Z,84.2
2022-09-30T05:26:12.974Z,84.1
2022-09-30T05:41:22.752Z,83.9
2022-09-30T05:56:32.134Z,83.9
2022-09-30T06:11:41.819Z,83.5
2022-09-30T06:26:51.340Z,83.5
2022-09-30T06:42:01.968Z,83.3
2022-09-30T06:57:11.849Z,83
2022-09-30T07:12:22.077Z,82.7
2022-09-30T07:27:31.706Z,82.3
2022-09-30T07:42:41.963Z,81.9
2022-09-30T07:57:52.228Z,81.6
2022-09-30T08:13:06.877Z,80.9
2022-09-30T08:28:17.157Z,80.7
2022-09-30T08:43:26.999Z,80.3
2022-09-30T08:58:37.360Z,79.7
2022-09-30T09:13:47.274Z,79.4
2022-09-30T09:28:56.863Z,79.1
2022-09-30T09:44:06.876Z,78.8
2022-09-30T09:59:21.354Z,78.3
2022-09-30T10:14:31.313Z,77.7
2022-09-30T10:29:40.770Z,77.4
2022-09-30T10:44:51.132Z,76.9
2022-09-30T11:00:04.106Z,76.4
2022-09-30T11:15:13.958Z,76
2022-09-30T11:30:23.869Z,75.7
2022-09-30T11:45:33.940Z,75.5
2022-09-30T12:00:47.926Z,73.1
2022-09-30T12:15:58.637Z,69.9
2022-09-30T12:31:07.862Z,70.4
2022-09-30T12:46:17.852Z,69.9
2022-09-30T13:01:28.105Z,69.5
2022-09-30T13:16:38.041Z,70.1
2022-09-30T13:31:47.948Z,70.2
2022-09-30T13:46:58.356Z,65.9
2022-09-30T14:02:07.183Z,70.5
2022-09-30T14:17:16.297Z,70.7
2022-09-30T14:32:25.917Z,70.3
2022-09-30T14:47:35.700Z,70.2
2022-09-30T15:02:45.249Z,70.2
2022-09-30T15:17:55.099Z,70.4
2022-09-30T15:33:04.218Z,70.7
2022-09-30T15:48:13.716Z,70.2
2022-09-30T16:03:23.429Z,71
2022-09-30T16:18:35.477Z,71.2
2022-09-30T16:33:44.737Z,71.7
2022-09-30T16:48:54.497Z,72.4
2022-09-30T17:04:03.767Z,72.9
2022-09-30T17:19:13.380Z,73.3
2022-09-30T17:34:22.608Z,73.6
2022-09-30T17:49:32.549Z,73.8
2022-09-30T18:04:41.583Z,74.1
2022-09-30T18:19:51.163Z,74.3
2022-09-30T18:35:03.839Z,74.6
2022-09-30T18:50:13.610Z,74.9
2022-09-30T19:05:23.157Z,75.1
2022-09-30T19:20:32.629Z,75.2
2022-09-30T19:35:42.118Z,75.3
2022-09-30T19:50:51.192Z,75.4
2022-09-30T20:06:00.279Z,75.5
2022-09-30T20:21:09.485Z,75.7
2022-09-30T20:36:19.049Z,75.6
2022-09-30T20:51:29.357Z,75.6
2022-09-30T21:06:38.726Z,75.6
2022-09-30T21:21:47.427Z,75.4
2022-09-30T21:36:56.606Z,75.3
2022-09-30T21:52:06.035Z,75.8
2022-09-30T22:07:15.361Z,75.1
2022-09-30T22:22:25.381Z,75
2022-09-30T22:37:34.741Z,75
2022-09-30T22:52:44.419Z,75.1
2022-09-30T23:07:53.862Z,75.6
2022-09-30T23:23:04.923Z,75.2
2022-09-30T23:38:14.359Z,75.1
2022-09-30T23:53:23.834Z,75.1
